sensor_id;sensor_type;location;lat;lon;timestamp;temperature;humidity
3053;DHT22;1536;51.098;6.414;2023-08-21T00:00:45;21.90;99.90
3053;DHT22;1536;51.098;6.414;2023-08-21T00:03:12;21.90;99.90
3053;DHT22;1536;51.098;6.414;2023-08-21T00:05:40;21.90;99.90
3053;DHT22;1536;51.098;6.414;2023-08-21T00:08:07;21.80;99.90
3053;DHT22;1536;51.098;6.414;2023-08-21T00:10:37;21.90;99.90
3053;DHT22;1536;51.098;6.414;2023-08-21T00:13:04;21.80;99.90
3053;DHT22;1536;51.098;6.414;2023-08-21T00:15:31;21.90;99.90
3053;DHT22;1536;51.098;6.414;2023-08-21T00:17:58;21.80;99.90
3053;DHT22;1536;51.098;6.414;2023-08-21T00:20:26;21.80;99.90
3053;DHT22;1536;51.098;6.414;2023-08-21T00:22:54;21.80;99.90
3053;DHT22;1536;51.098;6.414;2023-08-21T00:25:21;21.80;99.90
3053;DHT22;1536;51.098;6.414;2023-08-21T00:27:48;21.80;99.90
3053;DHT22;1536;51.098;6.414;2023-08-21T00:30:15;21.70;99.90
3053;DHT22;1536;51.098;6.414;2023-08-21T00:32:42;21.70;99.90
3053;DHT22;1536;51.098;6.414;2023-08-21T00:35:08;21.70;99.90
3053;DHT22;1536;51.098;6.414;2023-08-21T00:37:35;21.70;99.90
3053;DHT22;1536;51.098;6.414;2023-08-21T00:40:04;21.60;99.90
3053;DHT22;1536;51.098;6.414;2023-08-21T00:42:31;21.60;99.90
3053;DHT22;1536;51.098;6.414;2023-08-21T00:44:58;21.60;99.90
3053;DHT22;1536;51.098;6.414;2023-08-21T00:47:25;21.50;99.90
3053;DHT22;1536;51.098;6.414;2023-08-21T00:49:52;21.50;99.90
3053;DHT22;1536;51.098;6.414;2023-08-21T00:52:19;21.50;99.90
3053;DHT22;1536;51.098;6.414;2023-08-21T00:54:45;21.40;99.90
3053;DHT22;1536;51.098;6.414;2023-08-21T00:57:14;21.40;99.90
3053;DHT22;1536;51.098;6.414;2023-08-21T00:59:40;21.40;99.90
3053;DHT22;1536;51.098;6.414;2023-08-21T01:02:07;21.30;99.90
3053;DHT22;1536;51.098;6.414;2023-08-21T01:04:34;21.30;99.90
3053;DHT22;1536;51.098;6.414;2023-08-21T01:07:01;21.30;99.90
3053;DHT22;1536;51.098;6.414;2023-08-21T01:09:33;21.30;99.90
3053;DHT22;1536;51.098;6.414;2023-08-21T01:12:06;21.30;99.90
3053;DHT22;1536;51.098;6.414;2023-08-21T01:14:43;21.20;99.90
3053;DHT22;1536;51.098;6.414;2023-08-21T01:17:13;21.20;99.90
3053;DHT22;1536;51.098;6.414;2023-08-21T01:19:42;21.20;99.90
3053;DHT22;1536;51.098;6.414;2023-08-21T01:22:11;21.20;99.90
3053;DHT22;1536;51.098;6.414;2023-08-21T01:24:39;21.20;99.90
3053;DHT22;1536;51.098;6.414;2023-08-21T01:27:06;21.20;99.90
3053;DHT22;1536;51.098;6.414;2023-08-21T01:29:33;21.20;99.90
3053;DHT22;1536;51.098;6.414;2023-08-21T01:32:06;21.20;99.90
3053;DHT22;1536;51.098;6.414;2023-08-21T01:34:35;21.10;99.90
3053;DHT22;1536;51.098;6.414;2023-08-21T01:37:03;21.20;99.90
3053;DHT22;1536;51.098;6.414;2023-08-21T01:39:30;21.10;99.90
3053;DHT22;1536;51.098;6.414;2023-08-21T01:41:58;21.10;99.90
3053;DHT22;1536;51.098;6.414;2023-08-21T01:44:25;21.10;99.90
3053;DHT22;1536;51.098;6.414;2023-08-21T01:46:52;21.20;99.90
3053;DHT22;1536;51.098;6.414;2023-08-21T01:49:19;21.20;99.90
3053;DHT22;1536;51.098;6.414;2023-08-21T01:51:46;21.20;99.90
3053;DHT22;1536;51.098;6.414;2023-08-21T01:54:13;21.20;99.90
3053;DHT22;1536;51.098;6.414;2023-08-21T01:56:39;21.20;99.90
3053;DHT22;1536;51.098;6.414;2023-08-21T01:59:07;21.20;99.90
3053;DHT22;1536;51.098;6.414;2023-08-21T02:01:34;21.20;99.90
3053;DHT22;1536;51.098;6.414;2023-08-21T02:04:01;21.10;99.90
3053;DHT22;1536;51.098;6.414;2023-08-21T02:06:28;21.20;99.90
3053;DHT22;1536;51.098;6.414;2023-08-21T02:08:54;21.20;99.90
3053;DHT22;1536;51.098;6.414;2023-08-21T02:11:21;21.20;99.90
3053;DHT22;1536;51.098;6.414;2023-08-21T02:13:48;21.20;99.90
3053;DHT22;1536;51.098;6.414;2023-08-21T02:16:16;21.10;99.90
3053;DHT22;1536;51.098;6.414;2023-08-21T02:18:43;21.20;99.90
3053;DHT22;1536;51.098;6.414;2023-08-21T02:21:09;21.10;99.90
3053;DHT22;1536;51.098;6.414;2023-08-21T02:23:36;21.20;99.90
3053;DHT22;1536;51.098;6.414;2023-08-21T02:26:03;21.20;99.90
3053;DHT22;1536;51.098;6.414;2023-08-21T02:28:29;21.20;99.90
3053;DHT22;1536;51.098;6.414;2023-08-21T02:30:56;21.20;99.90
3053;DHT22;1536;51.098;6.414;2023-08-21T02:33:24;21.20;99.90
3053;DHT22;1536;51.098;6.414;2023-08-21T02:35:51;21.20;99.90
3053;DHT22;1536;51.098;6.414;2023-08-21T02:38:18;21.20;99.90
3053;DHT22;1536;51.098;6.414;2023-08-21T02:40:45;21.20;99.90
3053;DHT22;1536;51.098;6.414;2023-08-21T02:43:12;21.20;99.90
3053;DHT22;1536;51.098;6.414;2023-08-21T02:45:39;21.20;99.90
3053;DHT22;1536;51.098;6.414;2023-08-21T02:48:06;21.20;99.90
3053;DHT22;1536;51.098;6.414;2023-08-21T02:50:34;21.20;99.90
3053;DHT22;1536;51.098;6.414;2023-08-21T02:53:01;21.20;99.90
3053;DHT22;1536;51.098;6.414;2023-08-21T02:55:28;21.20;99.90
3053;DHT22;1536;51.098;6.414;2023-08-21T02:57:54;21.20;99.90
3053;DHT22;1536;51.098;6.414;2023-08-21T03:00:21;21.20;99.90
3053;DHT22;1536;51.098;6.414;2023-08-21T03:02:48;21.20;99.90
3053;DHT22;1536;51.098;6.414;2023-08-21T03:05:15;21.20;99.90
3053;DHT22;1536;51.098;6.414;2023-08-21T03:07:43;21.20;99.90
3053;DHT22;1536;51.098;6.414;2023-08-21T03:10:10;21.20;99.90
3053;DHT22;1536;51.098;6.414;2023-08-21T03:12:37;21.20;99.90
3053;DHT22;1536;51.098;6.414;2023-08-21T03:15:04;21.20;99.90
3053;DHT22;1536;51.098;6.414;2023-08-21T03:17:31;21.20;99.90
3053;DHT22;1536;51.098;6.414;2023-08-21T03:19:58;21.20;99.90
3053;DHT22;1536;51.098;6.414;2023-08-21T03:22:25;21.20;99.90
3053;DHT22;1536;51.098;6.414;2023-08-21T03:24:53;21.20;99.90
3053;DHT22;1536;51.098;6.414;2023-08-21T03:27:19;21.20;99.90
3053;DHT22;1536;51.098;6.414;2023-08-21T03:29:46;21.20;99.90
3053;DHT22;1536;51.098;6.414;2023-08-21T03:32:15;21.10;99.90
3053;DHT22;1536;51.098;6.414;2023-08-21T03:34:42;21.10;99.90
3053;DHT22;1536;51.098;6.414;2023-08-21T03:37:08;21.10;99.90
3053;DHT22;1536;51.098;6.414;2023-08-21T03:39:35;21.10;99.90
3053;DHT22;1536;51.098;6.414;2023-08-21T03:42:04;21.10;99.90
3053;DHT22;1536;51.098;6.414;2023-08-21T03:44:31;21.10;99.90
3053;DHT22;1536;51.098;6.414;2023-08-21T03:46:58;21.10;99.90
3053;DHT22;1536;51.098;6.414;2023-08-21T03:49:25;21.10;99.90
3053;DHT22;1536;51.098;6.414;2023-08-21T03:51:52;21.00;99.90
3053;DHT22;1536;51.098;6.414;2023-08-21T03:54:19;21.00;99.90
3053;DHT22;1536;51.098;6.414;2023-08-21T03:56:45;21.00;99.90
3053;DHT22;1536;51.098;6.414;2023-08-21T03:59:13;21.00;99.90
3053;DHT22;1536;51.098;6.414;2023-08-21T04:01:40;21.00;99.90
3053;DHT22;1536;51.098;6.414;2023-08-21T04:04:07;21.00;99.90
3053;DHT22;1536;51.098;6.414;2023-08-21T04:06:33;21.00;99.90
3053;DHT22;1536;51.098;6.414;2023-08-21T04:09:00;21.00;99.90
3053;DHT22;1536;51.098;6.414;2023-08-21T04:11:27;21.00;99.90
3053;DHT22;1536;51.098;6.414;2023-08-21T04:13:54;20.90;99.90
3053;DHT22;1536;51.098;6.414;2023-08-21T04:16:22;20.90;99.90
3053;DHT22;1536;51.098;6.414;2023-08-21T04:18:49;20.90;99.90
3053;DHT22;1536;51.098;6.414;2023-08-21T04:21:16;20.90;99.90
3053;DHT22;1536;51.098;6.414;2023-08-21T04:23:44;20.90;99.90
3053;DHT22;1536;51.098;6.414;2023-08-21T04:26:11;20.90;99.90
3053;DHT22;1536;51.098;6.414;2023-08-21T04:28:38;20.80;99.90
3053;DHT22;1536;51.098;6.414;2023-08-21T04:31:05;20.80;99.90
3053;DHT22;1536;51.098;6.414;2023-08-21T04:33:33;20.80;99.90
3053;DHT22;1536;51.098;6.414;2023-08-21T04:36:00;20.80;99.90
3053;DHT22;1536;51.098;6.414;2023-08-21T04:38:27;20.80;99.90
3053;DHT22;1536;51.098;6.414;2023-08-21T04:40:54;20.80;99.90
3053;DHT22;1536;51.098;6.414;2023-08-21T04:43:21;20.80;99.90
3053;DHT22;1536;51.098;6.414;2023-08-21T04:45:48;20.70;99.90
3053;DHT22;1536;51.098;6.414;2023-08-21T04:48:15;20.80;99.90
3053;DHT22;1536;51.098;6.414;2023-08-21T04:50:44;20.70;99.90
3053;DHT22;1536;51.098;6.414;2023-08-21T04:53:10;20.80;99.90
3053;DHT22;1536;51.098;6.414;2023-08-21T04:55:39;20.70;99.90
3053;DHT22;1536;51.098;6.414;2023-08-21T04:58:06;20.80;99.90
3053;DHT22;1536;51.098;6.414;2023-08-21T05:00:33;20.70;99.90
3053;DHT22;1536;51.098;6.414;2023-08-21T05:03:00;20.70;99.90
3053;DHT22;1536;51.098;6.414;2023-08-21T05:05:27;20.80;99.90
3053;DHT22;1536;51.098;6.414;2023-08-21T05:07:55;20.70;99.90
3053;DHT22;1536;51.098;6.414;2023-08-21T05:10:21;20.70;99.90
3053;DHT22;1536;51.098;6.414;2023-08-21T05:12:48;20.70;99.90
3053;DHT22;1536;51.098;6.414;2023-08-21T05:15:15;20.70;99.90
3053;DHT22;1536;51.098;6.414;2023-08-21T05:17:42;20.70;99.90
3053;DHT22;1536;51.098;6.414;2023-08-21T05:20:09;20.60;99.90
3053;DHT22;1536;51.098;6.414;2023-08-21T05:22:39;20.60;99.90
3053;DHT22;1536;51.098;6.414;2023-08-21T05:25:08;20.60;99.90
3053;DHT22;1536;51.098;6.414;2023-08-21T05:27:35;20.60;99.90
3053;DHT22;1536;51.098;6.414;2023-08-21T05:30:02;20.50;99.90
3053;DHT22;1536;51.098;6.414;2023-08-21T05:32:29;20.50;99.90
3053;DHT22;1536;51.098;6.414;2023-08-21T05:34:56;20.50;99.90
3053;DHT22;1536;51.098;6.414;2023-08-21T05:37:23;20.50;99.90
3053;DHT22;1536;51.098;6.414;2023-08-21T05:39:49;20.50;99.90
3053;DHT22;1536;51.098;6.414;2023-08-21T05:42:18;20.50;99.90
3053;DHT22;1536;51.098;6.414;2023-08-21T05:44:44;20.50;99.90
3053;DHT22;1536;51.098;6.414;2023-08-21T05:47:11;20.50;99.90
3053;DHT22;1536;51.098;6.414;2023-08-21T05:49:40;20.60;99.90
3053;DHT22;1536;51.098;6.414;2023-08-21T05:52:08;20.60;99.90
3053;DHT22;1536;51.098;6.414;2023-08-21T05:54:35;20.60;99.90
3053;DHT22;1536;51.098;6.414;2023-08-21T05:57:02;20.60;99.90
3053;DHT22;1536;51.098;6.414;2023-08-21T05:59:31;20.60;99.90
3053;DHT22;1536;51.098;6.414;2023-08-21T06:01:58;20.70;99.90
3053;DHT22;1536;51.098;6.414;2023-08-21T06:04:25;20.70;99.90
3053;DHT22;1536;51.098;6.414;2023-08-21T06:06:52;20.70;99.90
3053;DHT22;1536;51.098;6.414;2023-08-21T06:09:19;20.80;99.90
3053;DHT22;1536;51.098;6.414;2023-08-21T06:11:46;20.80;99.90
3053;DHT22;1536;51.098;6.414;2023-08-21T06:14:13;20.80;99.90
3053;DHT22;1536;51.098;6.414;2023-08-21T06:16:41;20.90;99.90
3053;DHT22;1536;51.098;6.414;2023-08-21T06:19:09;20.90;99.90
3053;DHT22;1536;51.098;6.414;2023-08-21T06:21:35;21.00;99.90
3053;DHT22;1536;51.098;6.414;2023-08-21T06:24:03;21.00;99.90
3053;DHT22;1536;51.098;6.414;2023-08-21T06:26:30;21.00;99.90
3053;DHT22;1536;51.098;6.414;2023-08-21T06:28:56;21.10;99.90
3053;DHT22;1536;51.098;6.414;2023-08-21T06:31:23;21.10;99.90
3053;DHT22;1536;51.098;6.414;2023-08-21T06:33:51;21.20;99.90
3053;DHT22;1536;51.098;6.414;2023-08-21T06:36:18;21.20;99.90
3053;DHT22;1536;51.098;6.414;2023-08-21T06:38:45;21.30;99.90
3053;DHT22;1536;51.098;6.414;2023-08-21T06:41:11;21.30;99.90
3053;DHT22;1536;51.098;6.414;2023-08-21T06:43:38;21.40;99.90
3053;DHT22;1536;51.098;6.414;2023-08-21T06:46:05;21.40;99.90
3053;DHT22;1536;51.098;6.414;2023-08-21T06:48:32;21.40;99.90
3053;DHT22;1536;51.098;6.414;2023-08-21T06:51:00;21.50;99.90
3053;DHT22;1536;51.098;6.414;2023-08-21T06:53:27;21.50;99.90
3053;DHT22;1536;51.098;6.414;2023-08-21T06:55:55;21.60;99.90
3053;DHT22;1536;51.098;6.414;2023-08-21T06:58:22;21.60;99.90
3053;DHT22;1536;51.098;6.414;2023-08-21T07:00:49;21.70;99.90
3053;DHT22;1536;51.098;6.414;2023-08-21T07:03:15;21.70;99.90
3053;DHT22;1536;51.098;6.414;2023-08-21T07:05:46;21.70;99.90
3053;DHT22;1536;51.098;6.414;2023-08-21T07:08:14;21.80;99.90
3053;DHT22;1536;51.098;6.414;2023-08-21T07:10:41;21.80;99.90
3053;DHT22;1536;51.098;6.414;2023-08-21T07:13:08;21.90;99.90
3053;DHT22;1536;51.098;6.414;2023-08-21T07:15:34;21.90;99.90
3053;DHT22;1536;51.098;6.414;2023-08-21T07:18:01;22.00;99.90
3053;DHT22;1536;51.098;6.414;2023-08-21T07:20:28;22.00;99.90
3053;DHT22;1536;51.098;6.414;2023-08-21T07:22:55;22.00;99.90
3053;DHT22;1536;51.098;6.414;2023-08-21T07:25:23;22.00;99.90
3053;DHT22;1536;51.098;6.414;2023-08-21T07:27:50;22.10;99.90
3053;DHT22;1536;51.098;6.414;2023-08-21T07:30:18;22.10;99.90
3053;DHT22;1536;51.098;6.414;2023-08-21T07:32:46;22.20;99.90
3053;DHT22;1536;51.098;6.414;2023-08-21T07:35:14;22.20;99.90
3053;DHT22;1536;51.098;6.414;2023-08-21T07:37:43;22.30;99.90
3053;DHT22;1536;51.098;6.414;2023-08-21T07:40:11;22.30;99.90
3053;DHT22;1536;51.098;6.414;2023-08-21T07:42:40;22.40;99.90
3053;DHT22;1536;51.098;6.414;2023-08-21T07:45:07;22.40;99.90
3053;DHT22;1536;51.098;6.414;2023-08-21T07:47:34;22.40;99.90
3053;DHT22;1536;51.098;6.414;2023-08-21T07:50:01;22.50;99.90
3053;DHT22;1536;51.098;6.414;2023-08-21T07:52:28;22.50;99.90
3053;DHT22;1536;51.098;6.414;2023-08-21T07:54:55;22.60;99.90
3053;DHT22;1536;51.098;6.414;2023-08-21T07:57:21;22.70;99.90
3053;DHT22;1536;51.098;6.414;2023-08-21T07:59:49;22.80;99.90
3053;DHT22;1536;51.098;6.414;2023-08-21T08:02:16;22.90;99.90
3053;DHT22;1536;51.098;6.414;2023-08-21T08:04:43;22.90;99.90
3053;DHT22;1536;51.098;6.414;2023-08-21T08:07:10;23.10;99.90
3053;DHT22;1536;51.098;6.414;2023-08-21T08:09:36;23.20;99.90
3053;DHT22;1536;51.098;6.414;2023-08-21T08:12:04;23.20;99.90
3053;DHT22;1536;51.098;6.414;2023-08-21T08:14:31;23.30;99.90
3053;DHT22;1536;51.098;6.414;2023-08-21T08:16:59;23.30;99.90
3053;DHT22;1536;51.098;6.414;2023-08-21T08:19:28;23.40;99.90
3053;DHT22;1536;51.098;6.414;2023-08-21T08:21:55;23.40;99.90
3053;DHT22;1536;51.098;6.414;2023-08-21T08:24:21;23.50;99.90
3053;DHT22;1536;51.098;6.414;2023-08-21T08:26:48;23.50;99.90
3053;DHT22;1536;51.098;6.414;2023-08-21T08:29:15;23.60;99.90
3053;DHT22;1536;51.098;6.414;2023-08-21T08:31:42;23.70;99.90
3053;DHT22;1536;51.098;6.414;2023-08-21T08:34:10;23.70;99.90
3053;DHT22;1536;51.098;6.414;2023-08-21T08:36:36;23.80;99.90
3053;DHT22;1536;51.098;6.414;2023-08-21T08:39:03;23.90;99.90
3053;DHT22;1536;51.098;6.414;2023-08-21T08:41:37;24.00;99.90
3053;DHT22;1536;51.098;6.414;2023-08-21T08:44:04;24.10;99.90
3053;DHT22;1536;51.098;6.414;2023-08-21T08:46:32;24.20;99.90
3053;DHT22;1536;51.098;6.414;2023-08-21T08:49:00;24.30;99.90
3053;DHT22;1536;51.098;6.414;2023-08-21T08:51:30;24.40;99.90
3053;DHT22;1536;51.098;6.414;2023-08-21T08:53:58;24.50;99.90
3053;DHT22;1536;51.098;6.414;2023-08-21T08:56:25;24.60;99.90
3053;DHT22;1536;51.098;6.414;2023-08-21T08:58:52;24.70;99.90
3053;DHT22;1536;51.098;6.414;2023-08-21T09:01:18;24.80;99.90
3053;DHT22;1536;51.098;6.414;2023-08-21T09:03:45;24.90;99.90
3053;DHT22;1536;51.098;6.414;2023-08-21T09:06:12;25.00;99.90
3053;DHT22;1536;51.098;6.414;2023-08-21T09:08:50;25.00;99.90
3053;DHT22;1536;51.098;6.414;2023-08-21T09:11:20;25.20;99.90
3053;DHT22;1536;51.098;6.414;2023-08-21T09:13:49;25.20;99.90
3053;DHT22;1536;51.098;6.414;2023-08-21T09:16:17;25.30;99.90
3053;DHT22;1536;51.098;6.414;2023-08-21T09:18:47;25.30;99.90
3053;DHT22;1536;51.098;6.414;2023-08-21T09:21:16;25.40;99.90
3053;DHT22;1536;51.098;6.414;2023-08-21T09:23:44;25.50;99.90
3053;DHT22;1536;51.098;6.414;2023-08-21T09:26:11;25.50;99.90
3053;DHT22;1536;51.098;6.414;2023-08-21T09:28:38;25.50;99.90
3053;DHT22;1536;51.098;6.414;2023-08-21T09:31:05;25.60;99.90
3053;DHT22;1536;51.098;6.414;2023-08-21T09:33:31;25.60;99.90
3053;DHT22;1536;51.098;6.414;2023-08-21T09:35:59;25.70;99.90
3053;DHT22;1536;51.098;6.414;2023-08-21T09:38:26;25.80;99.90
3053;DHT22;1536;51.098;6.414;2023-08-21T09:40:55;25.80;99.90
3053;DHT22;1536;51.098;6.414;2023-08-21T09:43:23;25.90;99.90
3053;DHT22;1536;51.098;6.414;2023-08-21T09:45:51;25.90;99.90
3053;DHT22;1536;51.098;6.414;2023-08-21T09:48:21;26.00;99.90
3053;DHT22;1536;51.098;6.414;2023-08-21T09:50:48;26.00;99.90
3053;DHT22;1536;51.098;6.414;2023-08-21T09:53:16;26.10;99.90
3053;DHT22;1536;51.098;6.414;2023-08-21T09:55:43;26.10;99.90
3053;DHT22;1536;51.098;6.414;2023-08-21T09:58:13;26.20;99.90
3053;DHT22;1536;51.098;6.414;2023-08-21T10:00:40;26.20;99.90
3053;DHT22;1536;51.098;6.414;2023-08-21T10:03:09;26.20;99.90
3053;DHT22;1536;51.098;6.414;2023-08-21T10:05:37;26.20;99.90
3053;DHT22;1536;51.098;6.414;2023-08-21T10:08:05;26.30;99.90
3053;DHT22;1536;51.098;6.414;2023-08-21T10:10:34;26.30;99.90
3053;DHT22;1536;51.098;6.414;2023-08-21T10:13:02;26.30;99.90
3053;DHT22;1536;51.098;6.414;2023-08-21T10:15:31;26.40;99.90
3053;DHT22;1536;51.098;6.414;2023-08-21T10:18:17;26.50;99.90
3053;DHT22;1536;51.098;6.414;2023-08-21T10:20:45;26.50;99.90
3053;DHT22;1536;51.098;6.414;2023-08-21T10:23:24;26.60;99.90
3053;DHT22;1536;51.098;6.414;2023-08-21T10:25:54;26.70;99.90
3053;DHT22;1536;51.098;6.414;2023-08-21T10:28:21;26.70;99.90
3053;DHT22;1536;51.098;6.414;2023-08-21T10:30:50;26.80;99.90
3053;DHT22;1536;51.098;6.414;2023-08-21T10:33:17;26.80;99.90
3053;DHT22;1536;51.098;6.414;2023-08-21T10:35:45;26.90;99.90
3053;DHT22;1536;51.098;6.414;2023-08-21T10:38:13;26.90;99.90
3053;DHT22;1536;51.098;6.414;2023-08-21T10:41:04;26.90;99.90
3053;DHT22;1536;51.098;6.414;2023-08-21T10:43:38;26.90;99.90
3053;DHT22;1536;51.098;6.414;2023-08-21T10:46:07;27.00;99.90
3053;DHT22;1536;51.098;6.414;2023-08-21T10:48:34;27.00;99.90
3053;DHT22;1536;51.098;6.414;2023-08-21T10:51:02;27.10;99.90
3053;DHT22;1536;51.098;6.414;2023-08-21T10:53:30;27.10;99.90
3053;DHT22;1536;51.098;6.414;2023-08-21T10:55:57;27.10;99.90
3053;DHT22;1536;51.098;6.414;2023-08-21T10:58:27;27.10;99.90
3053;DHT22;1536;51.098;6.414;2023-08-21T11:00:57;27.10;99.90
3053;DHT22;1536;51.098;6.414;2023-08-21T11:03:25;27.10;99.90
3053;DHT22;1536;51.098;6.414;2023-08-21T11:06:03;27.10;99.90
3053;DHT22;1536;51.098;6.414;2023-08-21T11:08:31;27.20;99.90
3053;DHT22;1536;51.098;6.414;2023-08-21T11:10:58;27.20;99.90
3053;DHT22;1536;51.098;6.414;2023-08-21T11:13:25;27.20;99.90
3053;DHT22;1536;51.098;6.414;2023-08-21T11:16:02;27.20;99.90
3053;DHT22;1536;51.098;6.414;2023-08-21T11:18:34;27.20;99.90
3053;DHT22;1536;51.098;6.414;2023-08-21T11:21:07;27.20;99.90
3053;DHT22;1536;51.098;6.414;2023-08-21T11:23:36;27.20;99.90
3053;DHT22;1536;51.098;6.414;2023-08-21T11:26:03;27.20;99.90
3053;DHT22;1536;51.098;6.414;2023-08-21T11:28:31;27.30;99.90
3053;DHT22;1536;51.098;6.414;2023-08-21T11:30:58;27.30;99.90
3053;DHT22;1536;51.098;6.414;2023-08-21T11:33:25;27.30;99.90
3053;DHT22;1536;51.098;6.414;2023-08-21T11:35:54;27.30;99.90
3053;DHT22;1536;51.098;6.414;2023-08-21T11:38:25;27.40;99.90
3053;DHT22;1536;51.098;6.414;2023-08-21T11:40:54;27.40;99.90
3053;DHT22;1536;51.098;6.414;2023-08-21T11:43:21;27.40;99.90
3053;DHT22;1536;51.098;6.414;2023-08-21T11:45:48;27.40;99.90
3053;DHT22;1536;51.098;6.414;2023-08-21T11:48:14;27.40;99.90
3053;DHT22;1536;51.098;6.414;2023-08-21T11:50:41;27.40;99.90
3053;DHT22;1536;51.098;6.414;2023-08-21T11:53:09;27.40;99.90
3053;DHT22;1536;51.098;6.414;2023-08-21T11:55:38;27.40;99.90
3053;DHT22;1536;51.098;6.414;2023-08-21T11:58:05;27.30;99.90
3053;DHT22;1536;51.098;6.414;2023-08-21T12:00:32;27.40;99.90
3053;DHT22;1536;51.098;6.414;2023-08-21T12:03:00;27.30;99.90
3053;DHT22;1536;51.098;6.414;2023-08-21T12:05:28;27.40;99.90
3053;DHT22;1536;51.098;6.414;2023-08-21T12:07:55;27.40;99.90
3053;DHT22;1536;51.098;6.414;2023-08-21T12:10:24;27.30;99.90
3053;DHT22;1536;51.098;6.414;2023-08-21T12:12:51;27.30;99.90
3053;DHT22;1536;51.098;6.414;2023-08-21T12:15:18;27.40;99.90
3053;DHT22;1536;51.098;6.414;2023-08-21T12:17:45;27.30;99.90
3053;DHT22;1536;51.098;6.414;2023-08-21T12:20:12;27.30;99.90
3053;DHT22;1536;51.098;6.414;2023-08-21T12:22:39;27.30;99.90
3053;DHT22;1536;51.098;6.414;2023-08-21T12:25:07;27.30;99.90
3053;DHT22;1536;51.098;6.414;2023-08-21T12:27:35;27.40;99.90
3053;DHT22;1536;51.098;6.414;2023-08-21T12:30:02;27.40;99.90
3053;DHT22;1536;51.098;6.414;2023-08-21T12:32:29;27.40;99.90
3053;DHT22;1536;51.098;6.414;2023-08-21T12:34:56;27.40;99.90
3053;DHT22;1536;51.098;6.414;2023-08-21T12:37:22;27.40;99.90
3053;DHT22;1536;51.098;6.414;2023-08-21T12:39:50;27.40;99.90
3053;DHT22;1536;51.098;6.414;2023-08-21T12:42:17;27.30;99.90
3053;DHT22;1536;51.098;6.414;2023-08-21T12:44:45;27.30;99.90
3053;DHT22;1536;51.098;6.414;2023-08-21T12:47:12;27.30;99.90
3053;DHT22;1536;51.098;6.414;2023-08-21T12:49:39;27.30;99.90
3053;DHT22;1536;51.098;6.414;2023-08-21T12:52:05;27.30;99.90
3053;DHT22;1536;51.098;6.414;2023-08-21T12:54:32;27.30;99.90
3053;DHT22;1536;51.098;6.414;2023-08-21T12:56:59;27.30;99.90
3053;DHT22;1536;51.098;6.414;2023-08-21T12:59:25;27.40;99.90
3053;DHT22;1536;51.098;6.414;2023-08-21T13:01:54;27.40;99.90
3053;DHT22;1536;51.098;6.414;2023-08-21T13:04:20;27.40;99.90
3053;DHT22;1536;51.098;6.414;2023-08-21T13:06:47;27.40;99.90
3053;DHT22;1536;51.098;6.414;2023-08-21T13:09:14;27.50;99.90
3053;DHT22;1536;51.098;6.414;2023-08-21T13:11:41;27.50;99.90
3053;DHT22;1536;51.098;6.414;2023-08-21T13:14:08;27.60;99.90
3053;DHT22;1536;51.098;6.414;2023-08-21T13:16:35;27.60;99.90
3053;DHT22;1536;51.098;6.414;2023-08-21T13:19:03;27.70;99.90
3053;DHT22;1536;51.098;6.414;2023-08-21T13:21:30;27.80;99.90
3053;DHT22;1536;51.098;6.414;2023-08-21T13:23:57;27.70;99.90
3053;DHT22;1536;51.098;6.414;2023-08-21T13:26:24;27.80;99.90
3053;DHT22;1536;51.098;6.414;2023-08-21T13:28:51;27.90;99.90
3053;DHT22;1536;51.098;6.414;2023-08-21T13:31:18;27.90;99.90
3053;DHT22;1536;51.098;6.414;2023-08-21T13:33:45;27.80;99.90
3053;DHT22;1536;51.098;6.414;2023-08-21T13:36:14;27.70;99.90
3053;DHT22;1536;51.098;6.414;2023-08-21T13:38:41;27.70;99.90
3053;DHT22;1536;51.098;6.414;2023-08-21T13:41:07;27.60;99.90
3053;DHT22;1536;51.098;6.414;2023-08-21T13:43:34;27.60;99.90
3053;DHT22;1536;51.098;6.414;2023-08-21T13:46:02;27.70;99.90
3053;DHT22;1536;51.098;6.414;2023-08-21T13:48:29;27.70;99.90
3053;DHT22;1536;51.098;6.414;2023-08-21T13:50:56;27.80;99.90
3053;DHT22;1536;51.098;6.414;2023-08-21T13:53:24;27.80;99.90
3053;DHT22;1536;51.098;6.414;2023-08-21T13:55:51;27.90;99.90
3053;DHT22;1536;51.098;6.414;2023-08-21T13:58:17;27.90;99.90
3053;DHT22;1536;51.098;6.414;2023-08-21T14:00:44;28.00;99.90
3053;DHT22;1536;51.098;6.414;2023-08-21T14:03:11;27.90;99.90
3053;DHT22;1536;51.098;6.414;2023-08-21T14:05:38;27.90;99.90
3053;DHT22;1536;51.098;6.414;2023-08-21T14:08:05;27.90;99.90
3053;DHT22;1536;51.098;6.414;2023-08-21T14:10:42;27.90;99.90
3053;DHT22;1536;51.098;6.414;2023-08-21T14:13:09;27.90;99.90
3053;DHT22;1536;51.098;6.414;2023-08-21T14:15:37;28.00;99.90
3053;DHT22;1536;51.098;6.414;2023-08-21T14:18:04;28.00;99.90
3053;DHT22;1536;51.098;6.414;2023-08-21T14:20:30;28.00;99.90
3053;DHT22;1536;51.098;6.414;2023-08-21T14:22:57;28.10;99.90
3053;DHT22;1536;51.098;6.414;2023-08-21T14:25:24;28.10;99.90
3053;DHT22;1536;51.098;6.414;2023-08-21T14:27:52;28.20;99.90
3053;DHT22;1536;51.098;6.414;2023-08-21T14:30:20;28.30;99.90
3053;DHT22;1536;51.098;6.414;2023-08-21T14:32:47;28.40;99.90
3053;DHT22;1536;51.098;6.414;2023-08-21T14:35:14;28.40;99.90
3053;DHT22;1536;51.098;6.414;2023-08-21T14:37:41;28.30;99.90
3053;DHT22;1536;51.098;6.414;2023-08-21T14:40:08;28.20;99.90
3053;DHT22;1536;51.098;6.414;2023-08-21T14:42:36;28.10;99.90
3053;DHT22;1536;51.098;6.414;2023-08-21T14:45:05;28.10;99.90
3053;DHT22;1536;51.098;6.414;2023-08-21T14:47:32;28.10;99.90
3053;DHT22;1536;51.098;6.414;2023-08-21T14:49:58;28.20;99.90
3053;DHT22;1536;51.098;6.414;2023-08-21T14:52:25;28.30;99.90
3053;DHT22;1536;51.098;6.414;2023-08-21T14:54:52;28.40;99.90
3053;DHT22;1536;51.098;6.414;2023-08-21T14:57:19;28.50;99.90
3053;DHT22;1536;51.098;6.414;2023-08-21T14:59:46;28.50;99.90
3053;DHT22;1536;51.098;6.414;2023-08-21T15:05:31;28.70;99.90
3053;DHT22;1536;51.098;6.414;2023-08-21T15:07:57;28.80;99.90
3053;DHT22;1536;51.098;6.414;2023-08-21T15:10:27;28.90;99.90
3053;DHT22;1536;51.098;6.414;2023-08-21T15:12:53;28.90;99.90
3053;DHT22;1536;51.098;6.414;2023-08-21T15:15:20;28.90;99.90
3053;DHT22;1536;51.098;6.414;2023-08-21T15:17:47;28.90;99.90
3053;DHT22;1536;51.098;6.414;2023-08-21T15:20:14;28.90;99.90
3053;DHT22;1536;51.098;6.414;2023-08-21T15:22:42;28.90;99.90
3053;DHT22;1536;51.098;6.414;2023-08-21T15:25:09;28.90;99.90
3053;DHT22;1536;51.098;6.414;2023-08-21T15:27:37;28.90;99.90
3053;DHT22;1536;51.098;6.414;2023-08-21T15:30:04;29.00;99.90
3053;DHT22;1536;51.098;6.414;2023-08-21T15:32:31;29.00;99.90
3053;DHT22;1536;51.098;6.414;2023-08-21T15:34:58;28.90;99.90
3053;DHT22;1536;51.098;6.414;2023-08-21T15:37:26;28.90;99.90
3053;DHT22;1536;51.098;6.414;2023-08-21T15:39:54;28.90;99.90
3053;DHT22;1536;51.098;6.414;2023-08-21T15:42:21;28.90;99.90
3053;DHT22;1536;51.098;6.414;2023-08-21T15:44:48;28.90;99.90
3053;DHT22;1536;51.098;6.414;2023-08-21T15:47:14;28.90;99.90
3053;DHT22;1536;51.098;6.414;2023-08-21T15:49:41;28.90;99.90
3053;DHT22;1536;51.098;6.414;2023-08-21T15:52:08;28.80;99.90
3053;DHT22;1536;51.098;6.414;2023-08-21T15:54:37;28.80;99.90
3053;DHT22;1536;51.098;6.414;2023-08-21T15:57:05;28.70;99.90
3053;DHT22;1536;51.098;6.414;2023-08-21T15:59:31;28.60;99.90
3053;DHT22;1536;51.098;6.414;2023-08-21T16:01:58;28.50;99.90
3053;DHT22;1536;51.098;6.414;2023-08-21T16:04:25;28.40;99.90
3053;DHT22;1536;51.098;6.414;2023-08-21T16:06:52;28.40;99.90